Karl Stefan Memorial Airport Norfolk US
ICAO: KOFK
IATA: OFK
Category: Medium
Scheduled Services: No

Elevation: 1573 ft
TransAlt. 18000 ft.

Airport Communications:
ASOS:119.025
COLUMBUS RDO:122.15
CTAF/UNICOM:122.7

KOFK Zoom In..

Runways:

(A) RW 01 length 5800 ft width 100 ft
ILS 111.50 / hdg 14

(B) RW 14 length 5800 ft width 100 ft
---- / hdg 137

(C) RW 19 length 5800 ft width 100 ft
---- / hdg 194

(D) RW 32 length 5800 ft width 100 ft
---- / hdg 317

Location; KOFK
Day. 22 / Time. 23.56 Zulu
* Altimeter: 29.82
* Temperature: -04° c. -24.8°f.
* Wind from: 340° Speed 23 kn with Gusts up to 31 kn.
Dewpoint: -06° c.
Visibility: 2 Statute Miles.
Clouds: Overcast 1100 ft.
Conditions: Light Snow.Conditions: Mist.

KOFK 222356Z AUTO 34023G31KT 2SM -SN BR OVC011 M04/M06 A2982 RMK AO2 PK WND 33037/2312 SNB35 SLP113 P0000 60000 T10441056 11033 21044 53018


Wind From 340°
Speed 23 kn.

YouTube Music Video
 
jpsmedia.com for Web Design  worldairports.se 2018   terms of use